Time;durP1;ratioP1;P1;durP2;ratioP2;P2;SDS_P1;SDS_P2;PMS_P1;PMS_P2;Temp;Humidity;BMP_temperature;BMP_pressure;BME280_temperature;BME280_humidity;BME280_pressure;Samples;Min_cycle;Max_cycle;Signal;HPM_P1;HPM_P2
2022/10/30 00:00:38;;;;;;;2.53;0.82;;;;;;;;;;4934910;28;20039;-68
2022/10/30 00:03:05;;;;;;;2.90;0.77;;;;;;;;;;4912120;28;20047;-66
2022/10/30 00:05:32;;;;;;;5.45;0.88;;;;;;;;;;4920694;28;20653;-66
2022/10/30 00:07:58;;;;;;;5.65;0.95;;;;;;;;;;4922009;28;20142;-67
2022/10/30 00:10:25;;;;;;;2.50;0.80;;;;;;;;;;4934826;28;20520;-66
2022/10/30 00:12:51;;;;;;;4.68;0.90;;;;;;;;;;4921547;28;20045;-65
2022/10/30 00:15:18;;;;;;;4.28;0.90;;;;;;;;;;4912122;29;20040;-68
2022/10/30 00:17:45;;;;;;;4.65;0.90;;;;;;;;;;4910064;28;20487;-65
2022/10/30 00:20:11;;;;;;;3.10;1.00;;;;;;;;;;4918041;28;20118;-66
2022/10/30 00:22:38;;;;;;;4.95;1.27;;;;;;;;;;4921107;28;20106;-67
2022/10/30 00:25:05;;;;;;;2.78;0.80;;;;;;;;;;4921526;28;20047;-67
2022/10/30 00:27:31;;;;;;;3.47;0.93;;;;;;;;;;4921052;28;20047;-66
2022/10/30 00:29:58;;;;;;;3.15;0.90;;;;;;;;;;4920251;28;20036;-66
2022/10/30 00:32:24;;;;;;;4.65;1.10;;;;;;;;;;4920559;28;20858;-66
2022/10/30 00:34:51;;;;;;;3.33;1.13;;;;;;;;;;4921755;28;20040;-66
2022/10/30 00:37:18;;;;;;;2.97;1.00;;;;;;;;;;4920896;28;20405;-66
2022/10/30 00:39:44;;;;;;;4.05;1.05;;;;;;;;;;4919715;28;20059;-67
2022/10/30 00:42:15;;;;;;;5.35;1.20;;;;;;;;;;4924255;28;20118;-66
2022/10/30 00:44:47;;;;;;;3.40;1.00;;;;;;;;;;4922134;28;20058;-67
2022/10/30 00:47:19;;;;;;;3.75;1.00;;;;;;;;;;4923372;28;20092;-67
2022/10/30 00:49:51;;;;;;;5.60;1.60;;;;;;;;;;4918890;28;20063;-67
2022/10/30 00:52:18;;;;;;;6.28;2.03;;;;;;;;;;4920403;28;20513;-68
2022/10/30 00:54:45;;;;;;;3.72;1.33;;;;;;;;;;4919375;28;20559;-66
2022/10/30 00:57:12;;;;;;;4.03;1.48;;;;;;;;;;4920353;28;20174;-67
2022/10/30 00:59:38;;;;;;;4.63;1.40;;;;;;;;;;4918862;28;20047;-68
2022/10/30 01:02:05;;;;;;;3.55;1.40;;;;;;;;;;4920467;28;20074;-66
2022/10/30 01:04:33;;;;;;;4.93;1.70;;;;;;;;;;4909634;28;20417;-68
2022/10/30 01:07:02;;;;;;;4.00;1.20;;;;;;;;;;4920513;28;20102;-67
2022/10/30 01:09:29;;;;;;;4.00;1.20;;;;;;;;;;4925906;28;20090;-65
2022/10/30 01:11:57;;;;;;;2.95;1.00;;;;;;;;;;4919554;28;20043;-66
2022/10/30 01:14:24;;;;;;;4.45;1.00;;;;;;;;;;4919787;28;20086;-65
2022/10/30 01:17:01;;;;;;;3.85;1.00;;;;;;;;;;4919769;28;20044;-65
2022/10/30 01:19:36;;;;;;;4.43;1.00;;;;;;;;;;4918561;28;20265;-65
2022/10/30 01:22:08;;;;;;;3.40;1.00;;;;;;;;;;4919851;28;20039;-66
2022/10/30 01:24:35;;;;;;;6.18;1.10;;;;;;;;;;4919404;28;20074;-65
2022/10/30 01:27:16;;;;;;;4.07;0.88;;;;;;;;;;4919554;28;20047;-66
2022/10/30 01:30:15;;;;;;;4.20;1.10;;;;;;;;;;4919301;28;20035;-65
2022/10/30 01:32:48;;;;;;;5.85;1.10;;;;;;;;;;4908418;28;20039;-65
2022/10/30 01:35:23;;;;;;;4.13;1.23;;;;;;;;;;4920818;28;20043;-66
2022/10/30 01:38:02;;;;;;;3.53;1.20;;;;;;;;;;4920428;28;20050;-66
2022/10/30 01:40:29;;;;;;;4.82;1.20;;;;;;;;;;4921042;28;20031;-65
2022/10/30 01:42:57;;;;;;;2.70;0.93;;;;;;;;;;4921959;28;20047;-67
2022/10/30 01:45:46;;;;;;;5.43;1.10;;;;;;;;;;4920712;28;20792;-65
2022/10/30 01:48:19;;;;;;;3.70;1.20;;;;;;;;;;4921010;28;20040;-65
2022/10/30 01:50:55;;;;;;;6.68;1.80;;;;;;;;;;4919510;28;20110;-64
2022/10/30 01:53:29;;;;;;;4.80;1.85;;;;;;;;;;4918970;28;20047;-65
2022/10/30 01:55:56;;;;;;;4.35;1.60;;;;;;;;;;4920070;28;20050;-66
2022/10/30 01:58:27;;;;;;;4.75;1.70;;;;;;;;;;4920067;28;20050;-67
2022/10/30 02:00:55;;;;;;;6.07;1.40;;;;;;;;;;4919976;28;20074;-68
2022/10/30 02:03:22;;;;;;;6.95;2.08;;;;;;;;;;4924516;28;20376;-67
2022/10/30 02:05:49;;;;;;;8.73;2.28;;;;;;;;;;4919349;28;20058;-66
2022/10/30 02:08:16;;;;;;;5.90;1.77;;;;;;;;;;4918886;28;20047;-67
2022/10/30 02:10:44;;;;;;;6.05;1.42;;;;;;;;;;4916558;28;20044;-66
2022/10/30 02:13:11;;;;;;;5.30;1.65;;;;;;;;;;4918538;28;20035;-67
2022/10/30 02:15:38;;;;;;;3.83;1.38;;;;;;;;;;4918176;28;20114;-64
2022/10/30 02:18:05;;;;;;;3.08;1.25;;;;;;;;;;4920235;28;20706;-66
2022/10/30 02:20:31;;;;;;;6.22;1.80;;;;;;;;;;4918365;28;20047;-65
2022/10/30 02:22:58;;;;;;;3.88;1.50;;;;;;;;;;4918670;28;20441;-66
2022/10/30 02:25:24;;;;;;;5.10;2.20;;;;;;;;;;4918312;28;20042;-68
2022/10/30 02:27:51;;;;;;;6.43;2.30;;;;;;;;;;4919780;28;20142;-65
2022/10/30 02:30:18;;;;;;;5.03;1.67;;;;;;;;;;4918705;28;20043;-67
2022/10/30 02:32:44;;;;;;;4.00;1.80;;;;;;;;;;4914074;29;20046;-67
2022/10/30 02:35:11;;;;;;;5.60;2.05;;;;;;;;;;4932129;28;20048;-64
2022/10/30 02:37:38;;;;;;;5.38;1.60;;;;;;;;;;4922871;28;20043;-65
2022/10/30 02:40:07;;;;;;;5.22;1.40;;;;;;;;;;4917347;28;20185;-65
2022/10/30 02:42:34;;;;;;;3.83;1.30;;;;;;;;;;4917160;28;20094;-65
2022/10/30 02:45:00;;;;;;;3.65;1.33;;;;;;;;;;4917957;28;20036;-68
2022/10/30 02:47:28;;;;;;;3.33;1.10;;;;;;;;;;4914547;28;20099;-66
2022/10/30 02:49:55;;;;;;;3.25;1.25;;;;;;;;;;4917784;28;20190;-66
2022/10/30 02:52:22;;;;;;;4.70;1.20;;;;;;;;;;4914720;28;20118;-64
2022/10/30 02:54:48;;;;;;;4.40;1.15;;;;;;;;;;4916587;28;20139;-66
2022/10/30 02:57:15;;;;;;;3.33;1.13;;;;;;;;;;4917941;28;20132;-65
2022/10/30 02:59:41;;;;;;;3.22;1.05;;;;;;;;;;4908822;28;20039;-66
2022/10/30 03:02:08;;;;;;;3.55;1.00;;;;;;;;;;4931076;28;20032;-66
2022/10/30 03:04:34;;;;;;;3.03;1.02;;;;;;;;;;4909507;29;20448;-65
2022/10/30 03:07:01;;;;;;;4.75;1.20;;;;;;;;;;4918541;28;20089;-67
2022/10/30 03:09:28;;;;;;;3.88;1.15;;;;;;;;;;4914856;28;20121;-67
2022/10/30 03:11:55;;;;;;;4.85;1.00;;;;;;;;;;4918711;28;20392;-67
2022/10/30 03:14:21;;;;;;;4.63;1.30;;;;;;;;;;4909145;29;21005;-66
2022/10/30 03:16:48;;;;;;;3.88;1.23;;;;;;;;;;4919109;28;20052;-65
2022/10/30 03:19:14;;;;;;;6.32;1.52;;;;;;;;;;4914600;28;20115;-64
2022/10/30 03:21:41;;;;;;;4.60;1.40;;;;;;;;;;4916687;28;20043;-65
2022/10/30 03:24:08;;;;;;;5.25;1.35;;;;;;;;;;4918014;28;20130;-71
2022/10/30 03:26:34;;;;;;;3.72;1.40;;;;;;;;;;4916995;28;20075;-64
2022/10/30 03:29:01;;;;;;;4.90;1.40;;;;;;;;;;4918117;28;20035;-66
2022/10/30 03:31:30;;;;;;;6.10;1.40;;;;;;;;;;4919297;28;20039;-65
2022/10/30 03:33:57;;;;;;;4.15;1.50;;;;;;;;;;4922021;29;20030;-65
2022/10/30 03:36:25;;;;;;;4.75;1.70;;;;;;;;;;4921880;28;20990;-66
2022/10/30 03:38:51;;;;;;;8.20;1.80;;;;;;;;;;4920685;28;20364;-66
2022/10/30 03:41:18;;;;;;;3.55;1.45;;;;;;;;;;4922049;28;20046;-66
2022/10/30 03:43:44;;;;;;;5.15;1.67;;;;;;;;;;4921206;28;20039;-65
2022/10/30 03:46:11;;;;;;;5.20;1.10;;;;;;;;;;4922189;28;20122;-65
2022/10/30 03:48:38;;;;;;;3.83;1.38;;;;;;;;;;4921590;28;20512;-66
2022/10/30 03:51:04;;;;;;;5.55;1.10;;;;;;;;;;4921178;28;20126;-65
2022/10/30 03:53:31;;;;;;;3.28;1.20;;;;;;;;;;4920485;28;20039;-67
2022/10/30 03:55:59;;;;;;;3.22;1.00;;;;;;;;;;4920225;28;20462;-67
2022/10/30 03:58:26;;;;;;;2.70;1.00;;;;;;;;;;4920536;28;20115;-67
2022/10/30 04:00:52;;;;;;;2.92;1.00;;;;;;;;;;4920415;28;20036;-66
2022/10/30 04:03:19;;;;;;;4.20;1.15;;;;;;;;;;4909349;28;20114;-66
2022/10/30 04:05:49;;;;;;;2.20;0.80;;;;;;;;;;4920506;28;20039;-66
2022/10/30 04:08:16;;;;;;;2.45;0.85;;;;;;;;;;4919158;29;20055;-66
2022/10/30 04:10:44;;;;;;;2.88;0.90;;;;;;;;;;4919600;28;20047;-67
2022/10/30 04:13:11;;;;;;;3.13;0.90;;;;;;;;;;4921287;28;20131;-66
2022/10/30 04:15:38;;;;;;;2.90;1.00;;;;;;;;;;4919757;28;20078;-66
2022/10/30 04:18:04;;;;;;;6.80;1.13;;;;;;;;;;4921423;28;20197;-66
2022/10/30 04:20:31;;;;;;;2.70;0.77;;;;;;;;;;4919693;28;20067;-66
2022/10/30 04:22:58;;;;;;;2.75;0.93;;;;;;;;;;4921044;28;20044;-65
2022/10/30 04:25:24;;;;;;;3.03;0.98;;;;;;;;;;4920224;28;20181;-66
2022/10/30 04:27:54;;;;;;;4.78;1.10;;;;;;;;;;4920338;28;20524;-66
2022/10/30 04:30:22;;;;;;;2.80;1.02;;;;;;;;;;4918794;28;20730;-66
2022/10/30 04:32:49;;;;;;;2.70;1.02;;;;;;;;;;4919262;29;20420;-65
2022/10/30 04:35:17;;;;;;;3.85;1.23;;;;;;;;;;4919745;28;20083;-66
2022/10/30 04:37:51;;;;;;;3.35;1.20;;;;;;;;;;4919823;28;20055;-65
2022/10/30 04:40:18;;;;;;;3.47;1.20;;;;;;;;;;4920657;28;20050;-66
2022/10/30 04:42:47;;;;;;;2.97;0.95;;;;;;;;;;4919661;28;20501;-65
2022/10/30 04:45:13;;;;;;;2.90;0.93;;;;;;;;;;4918540;28;21385;-66
2022/10/30 04:47:40;;;;;;;3.03;0.90;;;;;;;;;;4919601;28;20227;-66
2022/10/30 04:50:07;;;;;;;3.50;1.10;;;;;;;;;;4920059;28;20032;-65
2022/10/30 04:52:33;;;;;;;3.53;1.00;;;;;;;;;;4919646;28;20040;-65
2022/10/30 04:55:00;;;;;;;5.22;1.10;;;;;;;;;;4920797;28;20381;-65
2022/10/30 04:57:27;;;;;;;4.40;1.02;;;;;;;;;;4920873;28;20135;-64
2022/10/30 04:59:53;;;;;;;3.40;1.17;;;;;;;;;;4920597;28;20178;-67
2022/10/30 05:02:20;;;;;;;4.85;1.17;;;;;;;;;;4919927;28;20113;-66
2022/10/30 05:04:46;;;;;;;4.97;1.70;;;;;;;;;;4919018;28;20063;-66
2022/10/30 05:07:13;;;;;;;4.15;1.58;;;;;;;;;;4921335;28;20040;-67
2022/10/30 05:09:40;;;;;;;6.07;1.30;;;;;;;;;;4920369;28;20354;-66
2022/10/30 05:12:06;;;;;;;2.75;0.93;;;;;;;;;;4919599;28;20039;-65
2022/10/30 05:14:33;;;;;;;8.00;3.53;;;;;;;;;;4920291;28;20054;-65
2022/10/30 05:17:00;;;;;;;5.68;1.95;;;;;;;;;;4921565;28;20514;-66
2022/10/30 05:19:26;;;;;;;5.15;2.10;;;;;;;;;;4919669;28;20038;-64
2022/10/30 05:21:53;;;;;;;4.88;2.10;;;;;;;;;;4920884;28;20526;-65
2022/10/30 05:24:19;;;;;;;4.55;1.30;;;;;;;;;;4918437;28;20039;-67
2022/10/30 05:26:46;;;;;;;2.55;0.90;;;;;;;;;;4933567;28;20093;-65
2022/10/30 05:29:13;;;;;;;2.90;0.90;;;;;;;;;;4919031;28;20078;-64
2022/10/30 05:31:40;;;;;;;2.85;0.95;;;;;;;;;;4919231;28;20046;-66
2022/10/30 05:34:06;;;;;;;4.40;1.33;;;;;;;;;;4918430;28;20324;-65
2022/10/30 05:36:33;;;;;;;2.75;1.05;;;;;;;;;;4918221;28;20066;-64
2022/10/30 05:39:01;;;;;;;2.80;1.00;;;;;;;;;;4917577;28;20055;-65
2022/10/30 05:41:28;;;;;;;2.78;1.05;;;;;;;;;;4918418;28;20393;-64
2022/10/30 05:43:55;;;;;;;4.55;1.00;;;;;;;;;;4919650;28;20062;-65
2022/10/30 05:46:22;;;;;;;5.35;1.40;;;;;;;;;;4918761;28;20505;-64
2022/10/30 05:48:48;;;;;;;3.55;1.35;;;;;;;;;;4918938;28;20036;-66
2022/10/30 05:51:15;;;;;;;3.75;1.08;;;;;;;;;;4918898;28;20543;-65
2022/10/30 05:53:41;;;;;;;3.13;0.90;;;;;;;;;;4932716;28;20047;-65
2022/10/30 05:56:08;;;;;;;3.00;0.98;;;;;;;;;;4918400;28;20118;-65
2022/10/30 05:58:35;;;;;;;2.85;0.88;;;;;;;;;;4918119;28;20071;-65
2022/10/30 06:01:05;;;;;;;2.63;1.00;;;;;;;;;;4919338;28;20039;-64
2022/10/30 06:03:31;;;;;;;3.13;1.00;;;;;;;;;;4919284;28;20047;-64
2022/10/30 06:05:58;;;;;;;3.45;1.10;;;;;;;;;;4917528;29;20054;-65
2022/10/30 06:08:25;;;;;;;2.78;0.90;;;;;;;;;;4918793;28;20113;-65
2022/10/30 06:10:53;;;;;;;3.28;1.00;;;;;;;;;;4918600;28;20062;-65
2022/10/30 06:13:20;;;;;;;2.85;1.00;;;;;;;;;;4918854;28;20118;-65
2022/10/30 06:15:46;;;;;;;2.97;0.80;;;;;;;;;;4918495;28;20058;-65
2022/10/30 06:18:13;;;;;;;2.47;0.85;;;;;;;;;;4919544;28;20067;-65
2022/10/30 06:20:40;;;;;;;3.67;1.00;;;;;;;;;;4918049;28;20043;-64
2022/10/30 06:23:07;;;;;;;4.70;1.77;;;;;;;;;;4919965;28;20151;-65
2022/10/30 06:25:35;;;;;;;4.45;1.40;;;;;;;;;;4918160;28;20034;-65
2022/10/30 06:28:02;;;;;;;4.43;1.30;;;;;;;;;;4919879;28;20095;-65
2022/10/30 06:30:28;;;;;;;7.03;1.00;;;;;;;;;;4918392;28;20647;-64
2022/10/30 06:32:58;;;;;;;4.28;1.42;;;;;;;;;;4919411;28;20047;-64
2022/10/30 06:35:25;;;;;;;5.53;1.70;;;;;;;;;;4917809;28;20055;-64
2022/10/30 06:37:55;;;;;;;5.35;1.33;;;;;;;;;;4919137;28;20042;-65
2022/10/30 06:40:24;;;;;;;2.95;1.08;;;;;;;;;;4918526;28;20075;-65
2022/10/30 06:42:52;;;;;;;5.38;1.25;;;;;;;;;;4920297;28;20382;-64
2022/10/30 06:45:19;;;;;;;2.90;1.15;;;;;;;;;;4921043;28;20043;-64
2022/10/30 06:47:46;;;;;;;4.63;1.00;;;;;;;;;;4921116;28;20043;-64
2022/10/30 06:50:17;;;;;;;3.10;1.00;;;;;;;;;;4917917;28;20050;-64
2022/10/30 06:52:44;;;;;;;7.35;1.20;;;;;;;;;;4919044;28;20062;-64
2022/10/30 06:55:11;;;;;;;3.05;1.20;;;;;;;;;;4919189;28;20055;-64
2022/10/30 06:57:38;;;;;;;3.13;1.10;;;;;;;;;;4917438;28;20075;-65
2022/10/30 07:00:05;;;;;;;2.75;0.77;;;;;;;;;;4917948;28;20096;-64
2022/10/30 07:02:32;;;;;;;5.55;1.17;;;;;;;;;;4918314;28;20035;-64
2022/10/30 07:04:58;;;;;;;3.88;1.20;;;;;;;;;;4918191;28;20138;-65
2022/10/30 07:07:25;;;;;;;4.13;1.15;;;;;;;;;;4917574;28;20039;-64
2022/10/30 07:09:52;;;;;;;2.70;0.80;;;;;;;;;;4917229;28;20050;-65
2022/10/30 07:12:18;;;;;;;5.78;1.08;;;;;;;;;;4918310;28;20440;-65
2022/10/30 07:14:45;;;;;;;6.78;1.20;;;;;;;;;;4918050;28;20126;-65
2022/10/30 07:17:11;;;;;;;3.33;1.00;;;;;;;;;;4917450;28;20047;-65
2022/10/30 07:19:38;;;;;;;3.13;0.95;;;;;;;;;;4917649;28;20042;-65
2022/10/30 07:22:04;;;;;;;3.78;0.95;;;;;;;;;;4918213;28;20048;-65
2022/10/30 07:24:31;;;;;;;4.50;1.10;;;;;;;;;;4917189;28;20528;-65
2022/10/30 07:26:58;;;;;;;2.80;0.80;;;;;;;;;;4917881;28;20044;-65
2022/10/30 07:29:24;;;;;;;2.60;0.90;;;;;;;;;;4917056;28;20040;-65
2022/10/30 07:31:51;;;;;;;3.72;0.82;;;;;;;;;;4918343;28;20044;-65
2022/10/30 07:34:18;;;;;;;2.55;0.90;;;;;;;;;;4918249;28;20036;-65
2022/10/30 07:36:44;;;;;;;3.25;1.00;;;;;;;;;;4917858;28;20051;-65
2022/10/30 07:39:11;;;;;;;2.90;0.85;;;;;;;;;;4917498;28;20040;-64
2022/10/30 07:41:37;;;;;;;2.70;0.95;;;;;;;;;;4917512;28;20055;-65
2022/10/30 07:44:04;;;;;;;3.10;0.77;;;;;;;;;;4917887;28;20043;-64
2022/10/30 07:46:31;;;;;;;3.85;1.20;;;;;;;;;;4916678;28;20122;-64
2022/10/30 07:48:57;;;;;;;2.33;0.77;;;;;;;;;;4916921;28;20429;-63
2022/10/30 07:51:24;;;;;;;3.13;0.75;;;;;;;;;;4908228;28;20047;-64
2022/10/30 07:53:50;;;;;;;3.13;0.80;;;;;;;;;;4918001;28;20708;-63
2022/10/30 07:56:17;;;;;;;2.47;0.77;;;;;;;;;;4917499;28;20083;-64
2022/10/30 07:58:44;;;;;;;2.60;0.90;;;;;;;;;;4915714;28;20438;-64
2022/10/30 08:01:11;;;;;;;2.20;0.70;;;;;;;;;;4918062;28;20058;-64
2022/10/30 08:03:37;;;;;;;8.98;1.00;;;;;;;;;;4916273;28;20050;-66
2022/10/30 08:06:04;;;;;;;2.85;0.65;;;;;;;;;;4917346;28;20088;-65
2022/10/30 08:08:31;;;;;;;2.92;0.70;;;;;;;;;;4916226;28;20054;-64
2022/10/30 08:10:58;;;;;;;3.97;0.80;;;;;;;;;;4917949;28;20064;-66
2022/10/30 08:13:24;;;;;;;2.63;0.82;;;;;;;;;;4916149;28;20043;-63
2022/10/30 08:15:51;;;;;;;2.45;0.90;;;;;;;;;;4918318;28;20124;-63
2022/10/30 08:18:18;;;;;;;2.88;0.90;;;;;;;;;;4931341;28;20048;-65
2022/10/30 08:20:49;;;;;;;1.92;0.70;;;;;;;;;;4917872;28;20115;-64
2022/10/30 08:23:18;;;;;;;5.32;0.70;;;;;;;;;;4920959;28;21767;-63
2022/10/30 08:25:45;;;;;;;2.38;0.70;;;;;;;;;;4920140;28;20168;-64
2022/10/30 08:28:13;;;;;;;5.15;0.80;;;;;;;;;;4917899;29;21747;-64
2022/10/30 08:30:40;;;;;;;2.53;0.80;;;;;;;;;;4920125;28;21052;-64
2022/10/30 08:33:09;;;;;;;3.25;0.80;;;;;;;;;;4912575;29;20067;-63
2022/10/30 08:35:36;;;;;;;1.98;0.60;;;;;;;;;;4921790;28;20059;-63
2022/10/30 08:38:02;;;;;;;2.83;0.90;;;;;;;;;;4921793;28;20138;-64
2022/10/30 08:40:29;;;;;;;2.53;0.63;;;;;;;;;;4919617;28;20043;-64
2022/10/30 08:42:57;;;;;;;2.20;0.70;;;;;;;;;;4920915;28;20055;-65
2022/10/30 08:45:24;;;;;;;1.88;0.57;;;;;;;;;;4918624;28;20480;-64
2022/10/30 08:47:58;;;;;;;2.20;0.60;;;;;;;;;;4920830;28;20032;-65
2022/10/30 08:50:24;;;;;;;2.10;0.60;;;;;;;;;;4919198;28;20098;-67
2022/10/30 08:52:51;;;;;;;2.67;0.85;;;;;;;;;;4921696;28;20036;-64
2022/10/30 08:55:17;;;;;;;6.18;0.95;;;;;;;;;;4920386;28;20090;-65
2022/10/30 08:57:45;;;;;;;3.38;0.80;;;;;;;;;;4919865;28;20294;-65
2022/10/30 09:00:12;;;;;;;4.43;0.80;;;;;;;;;;4909897;29;20734;-65
2022/10/30 09:02:38;;;;;;;2.40;0.70;;;;;;;;;;4920125;28;20297;-64
2022/10/30 09:05:06;;;;;;;2.42;0.80;;;;;;;;;;4919758;28;20741;-65
2022/10/30 09:07:33;;;;;;;2.85;0.70;;;;;;;;;;4919241;28;21015;-65
2022/10/30 09:09:59;;;;;;;2.38;0.77;;;;;;;;;;4920201;28;20070;-65
2022/10/30 09:12:26;;;;;;;2.47;0.80;;;;;;;;;;4919678;28;20040;-64
2022/10/30 09:14:52;;;;;;;3.38;0.73;;;;;;;;;;4920058;28;20070;-64
2022/10/30 09:17:19;;;;;;;2.22;0.68;;;;;;;;;;4919566;28;20052;-68
2022/10/30 09:19:46;;;;;;;3.60;0.95;;;;;;;;;;4919050;28;20091;-64
2022/10/30 09:22:12;;;;;;;3.83;0.80;;;;;;;;;;4920133;28;20055;-65
2022/10/30 09:24:39;;;;;;;2.53;0.70;;;;;;;;;;4919210;28;20480;-64
2022/10/30 09:27:06;;;;;;;4.10;0.70;;;;;;;;;;4919162;28;20036;-64
2022/10/30 09:29:34;;;;;;;2.60;0.90;;;;;;;;;;4917720;28;20479;-64
2022/10/30 09:32:03;;;;;;;3.05;0.90;;;;;;;;;;4919477;28;20047;-65
2022/10/30 09:34:30;;;;;;;2.70;0.82;;;;;;;;;;4919482;28;20051;-66
2022/10/30 09:36:56;;;;;;;3.30;0.82;;;;;;;;;;4910079;28;20220;-64
2022/10/30 09:39:24;;;;;;;2.88;0.90;;;;;;;;;;4918992;28;20040;-65
2022/10/30 09:42:09;;;;;;;3.22;0.90;;;;;;;;;;4919049;28;20126;-64
2022/10/30 09:44:39;;;;;;;3.17;0.82;;;;;;;;;;4917054;28;20477;-67
2022/10/30 09:47:08;;;;;;;3.28;0.80;;;;;;;;;;4910026;28;20039;-65
2022/10/30 09:49:52;;;;;;;3.42;0.80;;;;;;;;;;4932718;28;20040;-65
2022/10/30 09:52:22;;;;;;;3.15;0.90;;;;;;;;;;4919048;28;20135;-65
2022/10/30 09:55:07;;;;;;;4.78;0.90;;;;;;;;;;4916932;29;20043;-64
2022/10/30 09:57:39;;;;;;;4.68;0.90;;;;;;;;;;4918102;28;20056;-65
2022/10/30 10:00:13;;;;;;;2.30;0.82;;;;;;;;;;4918482;28;20072;-65
2022/10/30 10:02:51;;;;;;;2.60;0.70;;;;;;;;;;4908693;28;20495;-65
2022/10/30 10:05:23;;;;;;;2.50;0.77;;;;;;;;;;4916259;28;20053;-65
2022/10/30 10:07:52;;;;;;;2.63;0.82;;;;;;;;;;4917431;28;20492;-65
2022/10/30 10:10:22;;;;;;;2.67;0.80;;;;;;;;;;4917917;28;20063;-65
2022/10/30 10:12:49;;;;;;;2.50;0.90;;;;;;;;;;4916929;29;20044;-65
2022/10/30 10:15:25;;;;;;;2.00;0.70;;;;;;;;;;4919460;28;20034;-66
2022/10/30 10:17:52;;;;;;;2.80;0.82;;;;;;;;;;4918452;28;20071;-65
2022/10/30 10:20:32;;;;;;;2.17;0.70;;;;;;;;;;4918595;28;20040;-66
2022/10/30 10:23:02;;;;;;;3.00;0.82;;;;;;;;;;4917214;29;20620;-65
2022/10/30 10:25:30;;;;;;;2.63;0.73;;;;;;;;;;4917264;28;20052;-65
2022/10/30 10:28:06;;;;;;;2.30;0.70;;;;;;;;;;4918499;28;20044;-66
2022/10/30 10:30:46;;;;;;;3.08;0.77;;;;;;;;;;4908218;28;20315;-64
2022/10/30 10:33:22;;;;;;;4.10;0.90;;;;;;;;;;4918679;28;20067;-65
2022/10/30 10:35:49;;;;;;;4.07;1.00;;;;;;;;;;4918949;28;20126;-65
2022/10/30 10:38:36;;;;;;;4.65;1.00;;;;;;;;;;4917998;28;20043;-65
2022/10/30 10:41:21;;;;;;;3.33;1.02;;;;;;;;;;4917796;28;20051;-66
2022/10/30 10:44:02;;;;;;;2.30;0.80;;;;;;;;;;4916933;28;20453;-65
2022/10/30 10:46:29;;;;;;;2.55;0.80;;;;;;;;;;4917795;28;20091;-65
2022/10/30 10:48:56;;;;;;;3.05;0.90;;;;;;;;;;4916059;29;20126;-67
2022/10/30 10:51:25;;;;;;;3.15;1.05;;;;;;;;;;4917786;28;20090;-65
2022/10/30 10:54:08;;;;;;;4.03;0.88;;;;;;;;;;4907842;29;20036;-65
2022/10/30 10:56:35;;;;;;;2.90;1.00;;;;;;;;;;4917076;28;20825;-65
2022/10/30 10:59:12;;;;;;;2.97;1.02;;;;;;;;;;4916905;28;21725;-66
2022/10/30 11:01:40;;;;;;;2.80;1.00;;;;;;;;;;4915953;28;20060;-67
2022/10/30 11:04:13;;;;;;;2.28;0.80;;;;;;;;;;4918777;28;20040;-65
2022/10/30 11:06:40;;;;;;;3.05;1.00;;;;;;;;;;4917423;28;20047;-65
2022/10/30 11:09:20;;;;;;;3.47;0.90;;;;;;;;;;4918768;28;20040;-66
2022/10/30 11:11:47;;;;;;;4.45;1.00;;;;;;;;;;4917869;28;20103;-66
2022/10/30 11:14:16;;;;;;;4.10;0.93;;;;;;;;;;4918196;28;20083;-65
2022/10/30 11:16:46;;;;;;;2.78;0.93;;;;;;;;;;4915601;29;20052;-65
2022/10/30 11:19:13;;;;;;;2.70;1.00;;;;;;;;;;4932810;28;20039;-65
2022/10/30 11:21:43;;;;;;;2.92;0.77;;;;;;;;;;4916392;28;20106;-65
2022/10/30 11:24:28;;;;;;;3.40;0.90;;;;;;;;;;4918207;28;20127;-65
2022/10/30 11:26:56;;;;;;;2.42;0.70;;;;;;;;;;4923384;28;20139;-64
2022/10/30 11:29:27;;;;;;;3.40;0.80;;;;;;;;;;4917514;28;21035;-65
2022/10/30 11:32:02;;;;;;;2.13;0.65;;;;;;;;;;4924847;28;20121;-65
2022/10/30 11:34:33;;;;;;;4.32;0.80;;;;;;;;;;4918171;28;20108;-65
2022/10/30 11:36:59;;;;;;;2.45;0.70;;;;;;;;;;4909218;28;20213;-65
2022/10/30 11:39:27;;;;;;;2.83;0.77;;;;;;;;;;4918087;28;20040;-65
2022/10/30 11:41:59;;;;;;;2.10;0.50;;;;;;;;;;4918587;28;21237;-65
2022/10/30 11:44:36;;;;;;;2.10;0.68;;;;;;;;;;4917643;28;20173;-65
2022/10/30 11:47:04;;;;;;;1.98;0.63;;;;;;;;;;4918112;28;20511;-65
2022/10/30 11:49:48;;;;;;;1.73;0.57;;;;;;;;;;4917849;28;20043;-66
2022/10/30 11:52:17;;;;;;;1.88;0.70;;;;;;;;;;4917625;28;20412;-65
2022/10/30 11:54:47;;;;;;;2.95;0.77;;;;;;;;;;4919225;28;20078;-65
2022/10/30 11:57:24;;;;;;;3.35;0.60;;;;;;;;;;4912499;28;20077;-66
2022/10/30 11:59:52;;;;;;;1.98;0.60;;;;;;;;;;4921170;28;20052;-66
2022/10/30 12:02:25;;;;;;;1.23;0.45;;;;;;;;;;4920535;28;20039;-65
2022/10/30 12:04:52;;;;;;;1.45;0.50;;;;;;;;;;4919854;28;20054;-65
2022/10/30 12:07:30;;;;;;;3.67;0.70;;;;;;;;;;4921345;28;20126;-65
2022/10/30 12:09:58;;;;;;;11.63;1.00;;;;;;;;;;4920709;28;20051;-66
2022/10/30 12:12:24;;;;;;;2.42;0.68;;;;;;;;;;4919409;28;20055;-65
2022/10/30 12:14:52;;;;;;;2.03;0.60;;;;;;;;;;4922876;28;21303;-64
2022/10/30 12:17:19;;;;;;;1.80;0.60;;;;;;;;;;4918670;29;20055;-66
2022/10/30 12:19:47;;;;;;;2.10;0.60;;;;;;;;;;4921078;28;20047;-64
2022/10/30 12:22:24;;;;;;;1.77;0.50;;;;;;;;;;4920916;28;20051;-65
2022/10/30 12:24:51;;;;;;;2.47;0.60;;;;;;;;;;4921781;28;20043;-64
2022/10/30 12:27:17;;;;;;;2.55;0.60;;;;;;;;;;4921151;28;20063;-63
2022/10/30 12:30:02;;;;;;;1.92;0.60;;;;;;;;;;4918345;29;20086;-63
2022/10/30 12:32:34;;;;;;;1.27;0.40;;;;;;;;;;4918651;28;20048;-65
2022/10/30 12:35:06;;;;;;;2.50;0.68;;;;;;;;;;4919865;28;20050;-65
2022/10/30 12:37:34;;;;;;;1.80;0.60;;;;;;;;;;4920975;28;20060;-70
2022/10/30 12:40:06;;;;;;;1.65;0.60;;;;;;;;;;4920935;28;21716;-65
2022/10/30 12:42:37;;;;;;;1.80;0.60;;;;;;;;;;4920084;28;20035;-64
2022/10/30 12:45:03;;;;;;;1.88;0.65;;;;;;;;;;4919928;28;20044;-66
2022/10/30 12:47:59;;;;;;;3.70;0.90;;;;;;;;;;4910443;28;20043;-67
2022/10/30 12:50:44;;;;;;;1.98;0.60;;;;;;;;;;4913034;28;20040;-65
2022/10/30 12:53:17;;;;;;;1.95;0.50;;;;;;;;;;4910593;28;20590;-65
2022/10/30 12:55:47;;;;;;;1.88;0.55;;;;;;;;;;4918953;28;20062;-64
2022/10/30 12:58:14;;;;;;;2.20;0.68;;;;;;;;;;4919793;28;20046;-65
2022/10/30 13:00:50;;;;;;;1.67;0.50;;;;;;;;;;4919479;28;20058;-65
2022/10/30 13:03:36;;;;;;;2.78;0.82;;;;;;;;;;4920082;28;20115;-67
2022/10/30 13:06:23;;;;;;;3.42;0.77;;;;;;;;;;4918149;28;21147;-64
2022/10/30 13:09:02;;;;;;;3.55;0.68;;;;;;;;;;4919982;28;20142;-65
2022/10/30 13:11:39;;;;;;;2.17;0.60;;;;;;;;;;4919150;28;20074;-65
2022/10/30 13:14:11;;;;;;;3.20;0.68;;;;;;;;;;4917617;29;20050;-65
2022/10/30 13:16:38;;;;;;;1.35;0.55;;;;;;;;;;4918533;28;20110;-64
2022/10/30 13:19:05;;;;;;;2.45;0.70;;;;;;;;;;4918914;28;20075;-66
2022/10/30 13:21:32;;;;;;;1.92;0.57;;;;;;;;;;4919308;28;20054;-67
2022/10/30 13:24:02;;;;;;;1.88;0.60;;;;;;;;;;4920151;28;20991;-67
2022/10/30 13:26:35;;;;;;;1.77;0.70;;;;;;;;;;4918285;28;20163;-67
2022/10/30 13:29:01;;;;;;;2.70;0.75;;;;;;;;;;4919529;28;20053;-64
2022/10/30 13:31:28;;;;;;;2.38;0.80;;;;;;;;;;4919127;28;20044;-65
2022/10/30 13:34:16;;;;;;;2.15;0.60;;;;;;;;;;4919482;28;20142;-64
2022/10/30 13:37:08;;;;;;;3.28;0.80;;;;;;;;;;4910626;28;20513;-64
2022/10/30 13:39:35;;;;;;;2.10;0.63;;;;;;;;;;4910388;28;20052;-68
2022/10/30 13:42:05;;;;;;;2.70;0.80;;;;;;;;;;4919369;28;20083;-64
2022/10/30 13:44:54;;;;;;;2.08;0.55;;;;;;;;;;4916584;28;20204;-65
2022/10/30 13:47:32;;;;;;;1.90;0.70;;;;;;;;;;4918980;28;20046;-65
2022/10/30 13:50:02;;;;;;;2.35;0.68;;;;;;;;;;4920476;28;20058;-65
2022/10/30 13:52:30;;;;;;;2.63;0.60;;;;;;;;;;4920270;28;21788;-64
2022/10/30 13:54:59;;;;;;;3.20;0.70;;;;;;;;;;4919414;28;20036;-65
2022/10/30 13:57:25;;;;;;;2.10;0.77;;;;;;;;;;4918645;28;22116;-65
2022/10/30 14:00:05;;;;;;;3.50;0.80;;;;;;;;;;4917136;28;20468;-65
2022/10/30 14:02:43;;;;;;;2.40;0.60;;;;;;;;;;4918461;28;20568;-65
2022/10/30 14:05:13;;;;;;;3.22;0.90;;;;;;;;;;4918532;28;21475;-65
2022/10/30 14:07:42;;;;;;;2.03;0.70;;;;;;;;;;4918452;28;20127;-65
2022/10/30 14:10:08;;;;;;;3.50;0.80;;;;;;;;;;4918343;28;20052;-65
2022/10/30 14:12:53;;;;;;;2.53;0.80;;;;;;;;;;4917924;28;20243;-66
2022/10/30 14:15:31;;;;;;;1.73;0.57;;;;;;;;;;4916156;28;20044;-65
2022/10/30 14:18:13;;;;;;;3.00;0.80;;;;;;;;;;4916242;28;20481;-66
2022/10/30 14:20:46;;;;;;;2.08;0.70;;;;;;;;;;4932342;28;21034;-66
2022/10/30 14:23:14;;;;;;;4.05;0.60;;;;;;;;;;4918639;28;20039;-67
2022/10/30 14:25:41;;;;;;;4.53;0.70;;;;;;;;;;4917563;28;20138;-65
2022/10/30 14:28:21;;;;;;;4.10;0.90;;;;;;;;;;4917735;28;20600;-66
2022/10/30 14:30:47;;;;;;;4.47;0.80;;;;;;;;;;4909280;28;20040;-66
2022/10/30 14:33:33;;;;;;;2.40;0.73;;;;;;;;;;4918628;28;20042;-65
2022/10/30 14:36:17;;;;;;;2.72;0.70;;;;;;;;;;4917525;28;20059;-65
2022/10/30 14:38:59;;;;;;;2.92;0.85;;;;;;;;;;4918254;28;20412;-66
2022/10/30 14:41:44;;;;;;;4.68;0.90;;;;;;;;;;4916597;28;20077;-66
2022/10/30 14:44:11;;;;;;;6.30;1.35;;;;;;;;;;4922198;28;20075;-65
2022/10/30 14:46:44;;;;;;;7.72;1.20;;;;;;;;;;4914561;28;20047;-66
2022/10/30 14:49:49;;;;;;;2.47;0.90;;;;;;;;;;4906606;28;20544;-66
2022/10/30 14:52:16;;;;;;;2.40;0.80;;;;;;;;;;4888119;29;20032;-65
2022/10/30 14:54:51;;;;;;;3.58;1.00;;;;;;;;;;4885838;29;20039;-66
2022/10/30 14:57:40;;;;;;;3.45;0.85;;;;;;;;;;4896069;29;20389;-68